Time;durP1;ratioP1;P1;durP2;ratioP2;P2;SDS_P1;SDS_P2;PMS_P1;PMS_P2;Temp;Humidity;BMP_temperature;BMP_pressure;BME280_temperature;BME280_humidity;BME280_pressure;Samples;Min_cycle;Max_cycle;Signal;HPM_P1;HPM_P2
2023/08/21 00:01:03;;;;;;;15.60;14.10;;;23.80;93.00;;;23.68;82.68;98397.28;4953682;28;20815;-71
2023/08/21 00:03:30;;;;;;;14.80;13.50;;;23.80;93.20;;;23.67;82.98;98401.16;4944850;29;20488;-71
2023/08/21 00:05:58;;;;;;;14.60;13.20;;;23.70;93.40;;;23.83;82.60;98393.50;4935785;29;20468;-70
2023/08/21 00:08:25;;;;;;;15.87;14.00;;;23.80;93.40;;;23.76;82.93;98391.09;4935687;29;21051;-70
2023/08/21 00:10:52;;;;;;;14.10;12.97;;;23.80;93.50;;;23.76;83.02;98394.69;4935815;29;20501;-71
2023/08/21 00:13:20;;;;;;;13.53;12.43;;;23.80;93.50;;;23.80;82.82;98388.59;4952032;29;20873;-71
2023/08/21 00:15:48;;;;;;;13.07;12.00;;;23.80;93.60;;;23.77;83.63;98396.34;4944817;29;20461;-71
2023/08/21 00:18:15;;;;;;;12.97;12.00;;;23.80;93.70;;;23.82;82.35;98397.38;4948954;28;20463;-71
2023/08/21 00:20:42;;;;;;;12.70;11.60;;;23.90;93.40;;;23.81;81.13;98396.56;4952669;29;20446;-73
2023/08/21 00:23:10;;;;;;;11.90;10.90;;;24.00;92.80;;;23.89;80.98;98398.66;4940405;29;20522;-71
2023/08/21 00:25:38;;;;;;;11.83;10.83;;;24.00;92.80;;;23.88;81.31;98396.19;4948296;28;20458;-70
2023/08/21 00:28:06;;;;;;;13.17;12.07;;;24.00;92.80;;;23.86;82.25;98392.91;4950177;28;20877;-71
2023/08/21 00:30:33;;;;;;;13.30;12.13;;;24.00;93.00;;;23.75;82.44;98393.03;4935365;29;20543;-71
2023/08/21 00:33:02;;;;;;;12.50;11.30;;;23.90;93.10;;;23.77;82.38;98401.84;4934727;29;20478;-71
2023/08/21 00:35:29;;;;;;;12.17;11.17;;;23.90;93.10;;;23.68;83.01;98402.78;4936326;29;20478;-72
2023/08/21 00:37:56;;;;;;;12.70;11.60;;;23.80;93.30;;;23.68;82.57;98403.59;4935265;29;20568;-71
2023/08/21 00:40:23;;;;;;;14.83;12.57;;;23.80;93.30;;;23.63;82.72;98403.66;4935272;29;20877;-72
2023/08/21 00:42:51;;;;;;;12.83;11.60;;;23.70;93.40;;;23.81;82.99;98396.56;4934127;29;20990;-72
2023/08/21 00:45:18;;;;;;;11.80;10.80;;;23.80;93.70;;;23.80;83.36;98396.84;4947379;29;20464;-72
2023/08/21 00:47:45;;;;;;;11.43;10.43;;;23.90;93.70;;;23.85;82.48;98397.63;4951044;28;20461;-72
2023/08/21 00:50:15;;;;;;;14.50;12.83;;;23.90;93.60;;;23.95;82.18;98402.19;4939969;28;20468;-73
2023/08/21 00:52:45;;;;;;;12.60;11.50;;;23.90;93.40;;;23.91;82.11;98401.16;4946300;28;20488;-71
2023/08/21 00:55:14;;;;;;;13.50;11.70;;;24.00;93.30;;;23.81;82.57;98398.50;4948038;29;20471;-71
2023/08/21 00:57:42;;;;;;;12.47;11.47;;;23.90;93.30;;;23.78;82.69;98397.13;4944463;28;21005;-71
2023/08/21 01:00:11;;;;;;;12.83;11.73;;;23.90;93.30;;;23.70;82.95;98395.84;4934906;29;20539;-71
2023/08/21 01:02:38;;;;;;;13.23;12.03;;;23.80;93.30;;;23.75;83.34;98406.84;4933191;29;20452;-72
2023/08/21 01:05:06;;;;;;;13.47;12.07;;;23.80;93.80;;;23.82;82.88;98394.63;4936786;29;21024;-72
2023/08/21 01:07:44;;;;;;;12.67;11.23;;;23.90;93.50;;;23.86;81.66;98395.66;4935218;29;20453;-71
2023/08/21 01:10:18;;;;;;;13.30;12.07;;;24.00;93.10;;;23.66;82.67;98394.78;4955855;28;20612;-70
2023/08/21 01:12:52;;;;;;;12.63;11.63;;;23.80;93.30;;;23.53;83.99;98406.53;4945025;29;20488;-71
2023/08/21 01:15:20;;;;;;;13.07;11.83;;;23.80;93.70;;;23.53;84.39;98418.38;4938284;29;20463;-71
2023/08/21 01:17:48;;;;;;;13.70;11.80;;;23.70;93.90;;;24.00;82.31;98437.97;4942373;29;20521;-70
2023/08/21 01:20:17;;;;;;;14.80;13.30;;;24.00;93.80;;;24.09;82.17;98460.25;4934568;29;20455;-70
2023/08/21 01:22:46;;;;;;;15.30;13.80;;;24.10;93.50;;;24.07;83.15;98448.69;4940330;29;20547;-71
2023/08/21 01:25:15;;;;;;;15.90;14.70;;;24.20;93.80;;;23.92;84.55;98442.22;4949551;28;20562;-70
2023/08/21 01:27:46;;;;;;;20.57;17.13;;;24.10;94.00;;;23.42;93.51;98439.69;4943583;29;20542;-69
2023/08/21 01:30:14;;;;;;;18.33;16.57;;;23.90;96.40;;;22.68;100.00;98423.19;4934810;29;20531;-70
2023/08/21 01:32:54;;;;;;;19.20;17.43;;;23.40;99.70;;;22.56;100.00;98409.75;4933219;29;20478;-71
2023/08/21 01:35:22;;;;;;;21.67;19.67;;;23.10;99.90;;;22.36;100.00;98411.50;4934309;29;20454;-71
2023/08/21 01:37:49;;;;;;;22.17;19.87;;;22.80;99.90;;;22.31;100.00;98406.84;4934223;29;20810;-71
2023/08/21 01:40:22;;;;;;;21.30;19.27;;;22.60;99.90;;;22.32;100.00;98408.50;4948940;28;20617;-71
2023/08/21 01:42:49;;;;;;;23.30;21.00;;;22.60;99.90;;;22.27;100.00;98402.19;4950301;28;20503;-71
2023/08/21 01:45:17;;;;;;;23.27;20.87;;;22.60;99.90;;;22.27;100.00;98404.94;4937930;29;20455;-71
2023/08/21 01:47:44;;;;;;;24.63;22.27;;;22.50;99.90;;;22.34;100.00;98395.28;4934343;29;20442;-72
2023/08/21 01:50:12;;;;;;;24.67;22.30;;;22.60;99.90;;;22.32;100.00;98403.00;4942973;29;20496;-72
2023/08/21 01:52:39;;;;;;;23.77;21.47;;;22.60;99.90;;;22.30;100.00;98402.44;4947692;29;20505;-72
2023/08/21 01:55:07;;;;;;;26.00;23.70;;;22.50;99.90;;;22.11;100.00;98395.97;4941126;29;20490;-71
2023/08/21 01:57:36;;;;;;;25.43;22.97;;;22.40;99.90;;;22.05;100.00;98393.22;4948698;29;20817;-71
2023/08/21 02:00:04;;;;;;;27.17;24.27;;;22.30;99.90;;;21.97;100.00;98388.31;4948896;28;20455;-72
2023/08/21 02:02:31;;;;;;;24.40;21.90;;;22.20;99.90;;;21.99;100.00;98388.84;4935087;28;20451;-71
2023/08/21 02:04:59;;;;;;;25.50;23.03;;;22.20;99.90;;;21.88;100.00;98392.75;4946848;29;20504;-71
2023/08/21 02:07:26;;;;;;;25.10;23.00;;;22.10;99.90;;;21.93;100.00;98384.50;4937801;29;20456;-70
2023/08/21 02:09:53;;;;;;;25.07;22.70;;;22.10;99.90;;;21.92;100.00;98385.59;4933034;29;20513;-71
2023/08/21 02:12:20;;;;;;;27.37;24.60;;;22.10;99.90;;;21.93;100.00;98384.50;4953007;28;20822;-71
2023/08/21 02:14:49;;;;;;;25.27;23.07;;;22.10;99.90;;;21.97;100.00;98393.81;4933637;29;20948;-71
2023/08/21 02:17:16;;;;;;;25.77;23.43;;;22.10;99.90;;;21.90;100.00;98380.38;4958826;28;20468;-71
2023/08/21 02:19:43;;;;;;;24.60;22.50;;;22.10;99.90;;;21.91;100.00;98387.50;4933642;29;20541;-71
2023/08/21 02:22:10;;;;;;;26.70;24.27;;;22.10;99.90;;;21.79;100.00;98395.25;4948170;28;20465;-71
2023/08/21 02:24:38;;;;;;;26.73;23.93;;;22.00;99.90;;;21.83;100.00;98384.53;4948748;29;20810;-71
2023/08/21 02:27:05;;;;;;;26.03;23.73;;;22.00;99.90;;;21.75;100.00;98389.47;4940532;28;20462;-70
2023/08/21 02:29:32;;;;;;;26.50;24.10;;;21.90;99.90;;;21.78;100.00;98388.94;4948534;28;20521;-71
2023/08/21 02:32:01;;;;;;;24.97;22.57;;;22.00;99.90;;;21.83;100.00;98393.56;4932865;29;20491;-71
2023/08/21 02:34:28;;;;;;;26.90;24.30;;;22.00;99.90;;;21.73;100.00;98394.44;4934195;29;20485;-70
2023/08/21 02:36:55;;;;;;;25.53;23.10;;;21.90;99.90;;;21.90;100.00;98396.03;4941514;28;20534;-70
2023/08/21 02:39:22;;;;;;;28.23;25.20;;;22.00;99.90;;;21.70;100.00;98405.19;4939807;29;20469;-70
2023/08/21 02:41:49;;;;;;;27.40;25.00;;;21.90;99.90;;;21.61;100.00;98402.97;4956100;28;20450;-70
2023/08/21 02:44:16;;;;;;;29.43;26.83;;;21.80;99.90;;;21.56;100.00;98396.66;4948022;28;20546;-70
2023/08/21 02:46:44;;;;;;;27.63;25.00;;;21.80;99.90;;;21.50;100.00;98402.19;4943568;29;20454;-71
2023/08/21 02:49:12;;;;;;;26.10;23.70;;;21.80;99.90;;;21.57;100.00;98399.16;4947747;29;20465;-71
2023/08/21 02:51:39;;;;;;;27.40;24.60;;;21.70;99.90;;;21.58;100.00;98399.94;4942665;29;20496;-71
2023/08/21 02:54:07;;;;;;;25.23;23.10;;;21.70;99.90;;;21.52;100.00;98399.97;4934793;29;20490;-71
2023/08/21 02:56:34;;;;;;;26.83;24.43;;;21.70;99.90;;;21.52;100.00;98402.72;4947890;28;21012;-71
2023/08/21 02:59:01;;;;;;;27.20;24.57;;;21.70;99.90;;;21.54;100.00;98399.72;4948009;28;20784;-71
2023/08/21 03:01:28;;;;;;;29.67;27.03;;;21.70;99.90;;;21.64;100.00;98401.59;4932593;29;20443;-71
2023/08/21 03:03:55;;;;;;;28.27;25.80;;;21.70;99.90;;;21.73;100.00;98401.88;4947436;28;20860;-70
2023/08/21 03:06:24;;;;;;;26.80;24.30;;;21.80;99.90;;;21.68;100.00;98397.22;4947820;28;20512;-71
2023/08/21 03:08:51;;;;;;;27.10;24.57;;;21.80;99.90;;;21.59;100.00;98402.44;4936791;29;20458;-71
2023/08/21 03:11:18;;;;;;;27.00;24.30;;;21.80;99.90;;;21.43;100.00;98409.88;4952529;28;20845;-71
2023/08/21 03:13:45;;;;;;;28.57;25.97;;;21.60;99.90;;;21.39;100.00;98407.97;4934804;29;20535;-71
2023/08/21 03:16:12;;;;;;;27.10;24.70;;;21.60;99.90;;;21.46;100.00;98403.00;4943612;29;20461;-71
2023/08/21 03:18:56;;;;;;;28.83;26.03;;;21.60;99.90;;;21.37;100.00;98403.56;4946306;29;20455;-71
2023/08/21 03:21:25;;;;;;;29.30;26.53;;;21.60;99.90;;;21.35;100.00;98399.47;4936180;29;20447;-70
2023/08/21 03:23:56;;;;;;;27.67;25.20;;;21.50;99.90;;;21.33;100.00;98405.22;4950605;29;20453;-70
2023/08/21 03:26:24;;;;;;;28.37;25.90;;;21.40;99.90;;;21.29;100.00;98415.13;4949744;28;20461;-70
2023/08/21 03:28:51;;;;;;;30.37;27.30;;;21.50;99.90;;;21.22;100.00;98415.41;4940045;28;20919;-70
2023/08/21 03:31:18;;;;;;;30.53;27.77;;;21.40;99.90;;;21.25;100.00;98404.97;4940051;29;20518;-69
2023/08/21 03:33:46;;;;;;;29.13;26.50;;;21.40;99.90;;;21.33;100.00;98407.16;4936328;29;20474;-70
2023/08/21 03:36:13;;;;;;;29.63;27.10;;;21.50;99.90;;;21.29;100.00;98404.13;4949973;29;21010;-70
2023/08/21 03:38:42;;;;;;;29.73;27.00;;;21.40;99.90;;;21.31;100.00;98406.63;4946572;29;20465;-71
2023/08/21 03:41:09;;;;;;;30.70;27.67;;;21.40;99.90;;;21.23;100.00;98405.25;4935156;29;20465;-70
2023/08/21 03:43:36;;;;;;;33.53;28.80;;;21.50;99.90;;;21.25;100.00;98414.03;4945671;29;20453;-70
2023/08/21 03:46:03;;;;;;;28.60;26.00;;;21.40;99.90;;;21.27;100.00;98411.00;4945569;29;20521;-71
2023/08/21 03:48:30;;;;;;;29.87;27.00;;;21.40;99.90;;;21.19;100.00;98401.38;4936545;29;20488;-69
2023/08/21 03:50:57;;;;;;;30.27;27.13;;;21.40;99.90;;;21.13;100.00;98411.56;4953877;29;20902;-71
2023/08/21 03:53:25;;;;;;;30.23;27.20;;;21.30;99.90;;;21.06;100.00;98409.09;4950938;28;20524;-71
2023/08/21 03:55:53;;;;;;;29.97;26.90;;;21.20;99.90;;;21.06;100.00;98416.50;4944807;29;20552;-70
2023/08/21 03:58:20;;;;;;;30.57;27.87;;;21.20;99.90;;;21.03;100.00;98412.38;4936148;29;20489;-71
2023/08/21 04:00:48;;;;;;;30.10;27.10;;;21.20;99.90;;;21.06;100.00;98416.50;4945198;29;20482;-71
2023/08/21 04:03:15;;;;;;;30.93;27.80;;;21.20;99.90;;;21.05;100.00;98420.38;4950103;28;20503;-70
2023/08/21 04:05:42;;;;;;;31.17;28.47;;;21.20;99.90;;;21.06;100.00;98416.50;4936085;29;20521;-70
2023/08/21 04:08:09;;;;;;;30.10;27.40;;;21.30;99.90;;;21.02;100.00;98421.72;4950663;28;20790;-71
2023/08/21 04:10:36;;;;;;;32.97;29.70;;;21.20;99.90;;;20.98;100.00;98408.81;4950704;28;20457;-70
2023/08/21 04:13:05;;;;;;;31.80;28.83;;;21.20;99.90;;;20.54;100.00;98345.06;4941234;29;20461;-70
2023/08/21 04:15:34;;;;;;;32.53;29.30;;;21.20;99.90;;;21.18;100.00;98422.56;4935760;29;20949;-70
2023/08/21 04:18:01;;;;;;;33.97;30.90;;;21.30;99.90;;;21.19;100.00;98437.94;4948467;29;20458;-71
2023/08/21 04:20:28;;;;;;;30.33;27.20;;;21.30;99.90;;;21.16;100.00;98432.16;4950490;28;20482;-71
2023/08/21 04:22:55;;;;;;;31.23;28.00;;;21.30;99.90;;;21.20;100.00;98434.09;4941442;29;21014;-71
2023/08/21 04:25:22;;;;;;;31.27;28.27;;;21.30;99.90;;;21.21;100.00;98435.75;4948751;28;20500;-70
2023/08/21 04:27:50;;;;;;;32.93;29.73;;;21.40;99.90;;;21.00;100.00;98429.41;4934267;29;20455;-70
2023/08/21 04:30:18;;;;;;;31.77;28.37;;;21.30;99.90;;;21.18;100.00;98432.72;4939366;29;20477;-71
2023/08/21 04:32:45;;;;;;;33.90;30.70;;;21.30;99.90;;;21.26;100.00;98440.41;4945693;28;20486;-71
2023/08/21 04:35:13;;;;;;;30.90;27.90;;;21.40;99.90;;;21.28;100.00;98438.22;4941482;28;20481;-71
2023/08/21 04:37:48;;;;;;;31.20;28.37;;;21.40;99.90;;;21.29;100.00;98436.28;4935753;29;20458;-71
2023/08/21 04:40:17;;;;;;;31.13;28.30;;;21.40;99.90;;;21.16;100.00;98430.25;4936944;29;20450;-71
2023/08/21 04:42:44;;;;;;;33.50;30.20;;;21.40;99.90;;;21.26;100.00;98437.66;4934563;29;20454;-70
2023/08/21 04:45:11;;;;;;;33.97;30.60;;;21.40;99.90;;;21.39;100.00;98425.28;4935423;29;20453;-70
2023/08/21 04:47:40;;;;;;;33.27;29.77;;;21.50;99.90;;;21.61;100.00;98424.13;4935346;29;20518;-71
2023/08/21 04:50:08;;;;;;;34.40;30.90;;;21.70;99.90;;;21.74;100.00;98422.78;4963249;28;20573;-70
2023/08/21 04:52:35;;;;;;;36.77;33.17;;;21.90;99.90;;;21.93;100.00;98428.50;4940201;29;20451;-70
2023/08/21 04:55:02;;;;;;;33.37;30.07;;;22.10;99.90;;;22.15;100.00;98432.78;4942808;29;20984;-70
2023/08/21 04:57:29;;;;;;;32.90;29.70;;;22.30;99.90;;;22.24;100.00;98428.38;4942592;29;20464;-70
2023/08/21 04:59:56;;;;;;;29.70;26.67;;;22.50;99.90;;;22.34;100.00;98430.25;4958202;28;20912;-69
2023/08/21 05:02:24;;;;;;;30.50;27.70;;;22.60;99.90;;;22.44;100.00;98438.41;4949546;29;20462;-69
2023/08/21 05:04:52;;;;;;;28.20;25.67;;;22.70;99.90;;;22.74;100.00;98438.56;4950770;29;20447;-70
2023/08/21 05:07:19;;;;;;;26.83;24.30;;;23.00;99.90;;;23.16;100.00;98437.16;4940173;28;20459;-70
2023/08/21 05:09:46;;;;;;;26.03;23.60;;;23.40;99.90;;;23.36;98.31;98440.06;4935989;29;20468;-69
2023/08/21 05:12:13;;;;;;;25.13;22.50;;;23.70;99.90;;;23.60;96.40;98438.16;4949150;28;20562;-70
2023/08/21 05:14:41;;;;;;;24.70;22.30;;;23.90;99.90;;;24.04;93.28;98433.56;4938493;29;20477;-70
2023/08/21 05:17:08;;;;;;;23.53;21.33;;;24.40;98.10;;;24.28;90.06;98432.72;4941222;29;20473;-70
2023/08/21 05:19:35;;;;;;;22.53;20.33;;;24.60;96.70;;;24.46;89.10;98444.06;4951403;29;20450;-70
2023/08/21 05:22:03;;;;;;;22.00;20.03;;;24.80;96.10;;;24.70;87.49;98443.19;4936935;29;20938;-70
2023/08/21 05:24:31;;;;;;;22.40;20.40;;;25.20;95.30;;;24.43;88.20;98441.91;4952229;29;20456;-70
2023/08/21 05:26:59;;;;;;;22.13;20.23;;;25.30;94.50;;;25.00;85.36;98438.34;4953190;28;20476;-70
2023/08/21 05:29:26;;;;;;;21.00;19.23;;;25.50;94.50;;;25.36;82.56;98451.56;4949732;29;20451;-71
2023/08/21 05:31:53;;;;;;;21.53;19.37;;;26.00;93.90;;;25.65;81.18;98445.00;4949943;29;20454;-70
2023/08/21 05:34:20;;;;;;;20.73;18.87;;;26.10;93.40;;;25.63;80.36;98447.25;4943539;28;20946;-70
2023/08/21 05:36:47;;;;;;;21.57;19.87;;;26.30;92.90;;;25.42;79.87;98446.78;4941300;29;20475;-70
2023/08/21 05:39:16;;;;;;;20.53;18.73;;;26.00;92.80;;;25.17;81.15;98449.66;4933123;29;20462;-70
2023/08/21 05:41:43;;;;;;;19.67;17.87;;;25.80;92.90;;;24.95;82.68;98449.50;4936211;29;20476;-70
2023/08/21 05:44:10;;;;;;;20.77;19.00;;;25.50;93.20;;;25.15;83.00;98454.69;4940686;29;20470;-70
2023/08/21 05:46:38;;;;;;;20.63;18.93;;;25.60;93.50;;;25.38;80.42;98463.13;4934442;29;20609;-70
2023/08/21 05:49:05;;;;;;;20.27;18.53;;;25.80;93.10;;;25.76;77.78;98462.22;4945199;28;20853;-71
2023/08/21 05:51:32;;;;;;;21.90;20.00;;;26.10;92.70;;;25.48;79.85;98461.34;4940970;29;20455;-71
2023/08/21 05:53:59;;;;;;;21.40;19.50;;;26.20;92.40;;;25.27;81.46;98465.25;4937976;29;20886;-69
2023/08/21 05:56:28;;;;;;;21.83;20.03;;;25.80;92.80;;;24.70;84.83;98457.81;4934067;29;20500;-70
2023/08/21 05:58:55;;;;;;;21.70;19.90;;;25.40;93.60;;;24.72;86.18;98463.06;4937880;29;20474;-70
2023/08/21 06:01:22;;;;;;;22.00;20.00;;;25.10;94.20;;;24.62;87.81;98466.78;4941139;28;20440;-70
2023/08/21 06:03:50;;;;;;;22.87;20.53;;;25.00;95.00;;;24.49;88.00;98471.09;4933484;29;20530;-71
2023/08/21 06:06:17;;;;;;;21.37;19.27;;;24.70;95.40;;;24.01;88.82;98467.22;4933927;29;20451;-69
2023/08/21 06:08:44;;;;;;;24.43;20.10;;;24.40;95.50;;;24.12;88.54;98472.66;4933750;29;20510;-70
2023/08/21 06:11:11;;;;;;;22.60;20.27;;;24.30;96.00;;;24.30;86.36;98471.88;4936385;29;20475;-70
2023/08/21 06:13:39;;;;;;;21.73;19.83;;;24.40;95.40;;;24.05;87.77;98468.34;4936362;29;20537;-72
2023/08/21 06:16:07;;;;;;;22.93;20.63;;;24.30;95.50;;;24.32;87.76;98477.91;4959462;28;20970;-70
2023/08/21 06:18:34;;;;;;;22.87;20.83;;;24.40;96.30;;;24.31;88.21;98468.00;4959750;28;20453;-70
2023/08/21 06:21:01;;;;;;;22.37;20.10;;;24.50;95.90;;;24.52;84.87;98473.28;4931980;29;20503;-71
2023/08/21 06:23:28;;;;;;;22.97;20.87;;;24.70;94.70;;;24.32;85.73;98472.41;4936337;29;20456;-70
2023/08/21 06:25:55;;;;;;;23.07;20.97;;;24.50;94.90;;;24.53;85.48;98480.44;4941879;29;20512;-70
2023/08/21 06:28:23;;;;;;;22.60;20.53;;;24.70;94.70;;;24.49;85.98;98476.59;4933653;29;20463;-70
2023/08/21 06:30:57;;;;;;;24.07;21.87;;;24.70;95.00;;;24.55;86.30;98478.19;4931704;29;20478;-71
2023/08/21 06:33:25;;;;;;;23.53;21.47;;;24.80;95.10;;;24.58;86.22;98480.34;4941318;29;20529;-70
2023/08/21 06:35:52;;;;;;;23.50;21.27;;;24.80;95.20;;;24.40;87.09;98478.41;4942760;29;20977;-71
2023/08/21 06:38:19;;;;;;;24.73;22.60;;;24.80;94.90;;;24.22;88.59;98478.06;4937566;28;20468;-71
2023/08/21 06:40:47;;;;;;;24.73;22.23;;;24.50;95.50;;;24.48;87.22;98474.97;4949051;29;20920;-70
2023/08/21 06:43:14;;;;;;;25.17;22.87;;;24.60;95.70;;;24.94;85.40;98478.22;4932637;29;20507;-71
2023/08/21 06:45:41;;;;;;;23.53;21.43;;;24.90;95.50;;;25.21;83.36;98483.06;4941517;29;20813;-70
2023/08/21 06:48:09;;;;;;;23.20;21.03;;;25.30;94.70;;;25.45;80.50;98477.41;4943656;28;20513;-70
2023/08/21 06:50:38;;;;;;;24.63;22.47;;;25.50;93.90;;;25.33;80.40;98482.59;4949170;28;20459;-71
2023/08/21 06:53:06;;;;;;;22.47;20.37;;;25.60;93.50;;;24.96;80.97;98426.25;4940014;28;20480;-71
2023/08/21 06:55:33;;;;;;;24.67;22.53;;;25.50;93.60;;;25.70;80.02;98480.06;4950593;29;20862;-71
2023/08/21 06:58:00;;;;;;;24.97;22.60;;;25.80;93.50;;;25.62;79.78;98478.81;4940916;29;20471;-71
2023/08/21 07:00:27;;;;;;;23.47;21.23;;;25.90;93.30;;;25.94;79.31;98482.66;4951011;28;20456;-71
2023/08/21 07:02:54;;;;;;;23.20;21.00;;;26.00;93.30;;;25.76;77.41;98481.59;4933011;28;20448;-72
2023/08/21 07:05:23;;;;;;;23.20;21.00;;;26.00;92.70;;;25.50;78.77;98482.06;4932908;29;20485;-71
2023/08/21 07:07:50;;;;;;;23.13;21.00;;;25.80;92.80;;;25.88;78.17;98486.66;4959341;28;20456;-70
2023/08/21 07:10:18;;;;;;;22.47;20.53;;;26.00;92.90;;;26.02;76.52;98493.03;4938204;28;20922;-70
2023/08/21 07:12:45;;;;;;;21.40;19.70;;;26.20;92.70;;;26.52;73.69;98487.88;4947553;28;20451;-70
2023/08/21 07:15:12;;;;;;;24.00;21.87;;;26.50;92.10;;;26.58;73.26;98487.47;4933430;29;20483;-71
2023/08/21 07:17:39;;;;;;;22.03;19.80;;;26.70;91.80;;;26.90;72.46;98492.34;4936238;28;20493;-69
2023/08/21 07:20:08;;;;;;;23.23;21.00;;;27.00;91.60;;;26.89;72.98;98490.72;4942684;29;20527;-70
2023/08/21 07:22:37;;;;;;;21.83;19.83;;;27.10;91.60;;;26.89;72.49;98491.53;4942623;28;20464;-71
2023/08/21 07:25:04;;;;;;;24.97;22.60;;;27.10;91.40;;;27.08;72.56;98494.16;4964683;28;20454;-71
2023/08/21 07:27:32;;;;;;;23.30;21.20;;;27.20;91.50;;;27.12;71.41;98495.16;4949363;29;20950;-72
2023/08/21 07:29:59;;;;;;;22.57;20.57;;;27.30;91.20;;;27.32;70.54;98497.75;4940537;29;20468;-70
2023/08/21 07:32:26;;;;;;;21.63;19.80;;;27.40;91.10;;;27.36;69.28;98494.00;4934641;29;20461;-70
2023/08/21 07:34:54;;;;;;;22.70;20.70;;;27.40;90.70;;;27.08;70.72;98490.56;4931366;29;20509;-71
2023/08/21 07:37:21;;;;;;;22.13;20.17;;;27.30;91.00;;;27.17;71.15;98494.22;4945145;29;20790;-71
2023/08/21 07:39:50;;;;;;;24.03;21.73;;;27.40;91.00;;;26.91;71.53;98499.53;4932838;29;20463;-71
2023/08/21 07:42:17;;;;;;;22.27;20.37;;;27.30;90.90;;;26.82;71.81;98497.47;4947097;29;20548;-69
2023/08/21 07:44:46;;;;;;;22.87;20.97;;;27.20;90.90;;;26.77;72.11;98505.09;4933585;29;20450;-70
2023/08/21 07:47:13;;;;;;;24.97;22.73;;;27.00;91.10;;;26.45;74.56;98504.91;4938316;29;20464;-71
2023/08/21 07:49:40;;;;;;;22.80;20.77;;;26.70;91.40;;;26.63;73.74;98505.13;4958148;28;20457;-71
2023/08/21 07:52:08;;;;;;;24.97;22.63;;;26.80;91.40;;;26.54;74.52;98511.38;4932043;29;20864;-71
2023/08/21 07:54:35;;;;;;;22.03;20.00;;;26.70;91.60;;;26.85;72.57;98507.13;4937921;28;20796;-70
2023/08/21 07:57:04;;;;;;;22.27;20.07;;;26.90;91.20;;;26.86;72.16;98509.59;4932608;29;20541;-71
2023/08/21 07:59:32;;;;;;;21.77;19.93;;;27.00;91.10;;;27.11;71.73;98504.63;4949573;28;20938;-70
2023/08/21 08:02:00;;;;;;;21.57;19.67;;;27.20;91.10;;;27.08;71.05;98509.97;4958111;28;20464;-70
2023/08/21 08:04:27;;;;;;;23.17;21.20;;;27.30;90.90;;;27.01;72.85;98510.38;4942949;29;20786;-71
2023/08/21 08:06:54;;;;;;;23.83;21.73;;;27.30;91.20;;;26.91;72.37;98521.69;4945458;29;20452;-73
2023/08/21 08:09:22;;;;;;;22.43;20.27;;;27.00;91.20;;;27.00;71.31;98508.75;4947440;28;20452;-70
2023/08/21 08:11:49;;;;;;;21.97;19.77;;;27.10;91.00;;;27.29;70.88;98515.84;4952110;29;20467;-71
2023/08/21 08:14:17;;;;;;;21.70;19.80;;;27.20;91.10;;;27.23;70.95;98511.56;4950607;28;20458;-71
2023/08/21 08:16:45;;;;;;;20.13;18.30;;;27.30;90.90;;;27.69;69.50;98506.81;4949193;29;20477;-70
2023/08/21 08:19:12;;;;;;;19.63;17.87;;;27.70;90.80;;;27.48;68.34;98512.03;4948755;29;20541;-70
2023/08/21 08:21:39;;;;;;;19.43;17.63;;;27.70;90.30;;;27.76;67.95;98514.69;4934878;29;20454;-71
2023/08/21 08:24:07;;;;;;;20.47;18.40;;;27.80;90.30;;;27.80;66.66;98507.38;4942361;29;20465;-71
2023/08/21 08:26:34;;;;;;;18.50;16.80;;;28.00;89.50;;;27.61;67.28;98511.19;4955931;28;20454;-72
2023/08/21 08:29:01;;;;;;;19.47;17.90;;;27.90;89.80;;;27.52;67.64;98513.03;4951562;28;20466;-70
2023/08/21 08:31:29;;;;;;;20.20;18.40;;;27.70;90.00;;;27.27;68.86;98510.59;4936317;29;20462;-70
2023/08/21 08:33:57;;;;;;;19.83;18.13;;;27.50;90.10;;;27.38;68.82;98508.41;4940874;29;20470;-71
2023/08/21 08:36:24;;;;;;;19.50;18.00;;;27.50;90.10;;;27.66;68.46;98513.81;4935655;29;20589;-70
2023/08/21 08:38:52;;;;;;;18.77;17.03;;;27.60;90.30;;;28.02;67.27;98519.59;4949845;29;20462;-70
2023/08/21 08:41:28;;;;;;;19.50;17.80;;;28.00;90.00;;;28.22;66.08;98513.47;4937402;29;20830;-71
2023/08/21 08:43:58;;;;;;;19.50;18.00;;;28.20;90.10;;;28.35;65.75;98513.69;4951221;29;20496;-71
2023/08/21 08:46:26;;;;;;;19.70;17.70;;;28.40;89.20;;;28.14;66.47;98517.03;4938433;29;20488;-71
2023/08/21 08:48:55;;;;;;;20.77;18.70;;;28.40;89.50;;;27.93;67.69;98506.47;4945927;28;20540;-70
2023/08/21 08:51:23;;;;;;;19.67;17.87;;;28.10;89.70;;;28.09;67.49;98517.16;4934330;29;20839;-71
2023/08/21 08:53:50;;;;;;;19.70;17.90;;;28.00;90.00;;;28.11;67.63;98512.09;4935009;29;20466;-72
2023/08/21 08:56:18;;;;;;;21.40;19.50;;;28.00;90.10;;;27.98;66.73;98472.19;4934930;29;20486;-72
2023/08/21 08:58:45;;;;;;;19.67;17.83;;;28.10;90.10;;;28.00;67.79;98517.09;4934786;29;20467;-71
2023/08/21 09:01:12;;;;;;;18.80;17.20;;;27.90;90.00;;;28.11;67.75;98517.63;4933695;29;20462;-72
2023/08/21 09:03:40;;;;;;;19.97;18.33;;;27.90;90.10;;;28.34;66.51;98517.59;4935388;29;20915;-71
2023/08/21 09:06:08;;;;;;;20.13;18.50;;;28.00;90.10;;;28.39;66.92;98523.00;4948125;28;20456;-71
2023/08/21 09:08:35;;;;;;;20.10;18.40;;;28.10;90.10;;;28.27;65.78;98520.84;4938156;28;20940;-72
2023/08/21 09:11:04;;;;;;;20.17;18.43;;;28.10;89.50;;;28.11;66.29;98506.53;4933304;29;20518;-71
2023/08/21 09:13:32;;;;;;;18.50;16.93;;;28.00;89.80;;;27.99;66.04;98521.84;4945998;28;20468;-71
2023/08/21 09:16:00;;;;;;;18.13;16.50;;;27.90;89.40;;;28.12;65.86;98510.94;4938739;29;20903;-71
2023/08/21 09:18:27;;;;;;;19.50;17.70;;;27.90;89.30;;;28.11;65.81;98512.09;4934722;29;20459;-70
2023/08/21 09:20:54;;;;;;;18.07;16.53;;;27.90;89.40;;;28.65;64.21;98511.16;4934148;29;20522;-70
2023/08/21 09:23:23;;;;;;;17.23;15.63;;;28.20;89.20;;;28.85;62.73;98509.75;4942594;29;20586;-69
2023/08/21 09:25:50;;;;;;;17.17;15.77;;;28.60;88.40;;;28.93;62.61;98497.78;4944078;28;20498;-70
2023/08/21 09:28:21;;;;;;;16.57;15.03;;;28.70;88.00;;;29.04;62.41;98501.09;4937835;29;20459;-72
2023/08/21 09:30:50;;;;;;;16.87;15.47;;;28.90;87.90;;;28.91;62.19;98507.63;4950503;29;20772;-71
2023/08/21 09:33:22;;;;;;;15.93;14.50;;;28.90;87.20;;;28.96;62.00;98496.34;4945840;28;20458;-70
2023/08/21 09:35:52;;;;;;;16.53;15.00;;;28.90;87.20;;;28.62;62.17;98497.91;4945035;29;20509;-71
2023/08/21 09:38:19;;;;;;;17.33;15.90;;;28.70;86.80;;;28.76;63.51;98504.16;4952058;29;20544;-71
2023/08/21 09:40:55;;;;;;;17.47;15.83;;;28.80;87.40;;;27.35;63.21;98309.31;4945748;28;20552;-71
2023/08/21 09:43:24;;;;;;;17.10;15.60;;;28.70;87.10;;;28.92;62.42;98498.13;4946290;29;20461;-71
2023/08/21 09:45:55;;;;;;;16.67;15.23;;;28.90;87.00;;;29.08;61.73;98507.63;4943536;29;20552;-70
2023/08/21 09:48:23;;;;;;;15.43;14.17;;;29.00;86.50;;;28.97;61.16;98497.97;4944856;29;20465;-71
2023/08/21 09:50:52;;;;;;;14.50;13.10;;;29.00;86.40;;;29.21;61.16;98496.66;4947833;29;20464;-71
2023/08/21 09:53:22;;;;;;;15.33;14.13;;;29.10;86.10;;;29.09;59.64;98492.56;4948237;28;20781;-70
2023/08/21 09:55:53;;;;;;;16.47;14.63;;;29.10;85.30;;;29.26;59.12;98482.59;4948164;29;20481;-71
2023/08/21 09:58:22;;;;;;;14.30;12.93;;;29.20;84.50;;;29.18;58.08;98486.19;4943632;29;20471;-70
2023/08/21 10:00:53;;;;;;;13.77;12.57;;;29.20;83.60;;;28.94;59.67;98493.06;4948080;28;20458;-71
2023/08/21 10:03:24;;;;;;;14.77;13.60;;;29.00;84.40;;;28.89;60.24;98482.09;4947996;28;20446;-70
2023/08/21 10:05:52;;;;;;;14.30;13.20;;;28.90;84.70;;;29.19;59.37;98482.25;4940656;29;20459;-72